Time;durP1;ratioP1;P1;durP2;ratioP2;P2;SDS_P1;SDS_P2;PMS_P1;PMS_P2;Temp;Humidity;BMP_temperature;BMP_pressure;BME280_temperature;BME280_humidity;BME280_pressure;Samples;Min_cycle;Max_cycle;Signal;HPM_P1;HPM_P2
2023/06/01 00:02:07;;;;;;;5.20;3.00;;;;;;;19.74;33.75;100220.70;107858;1254;60377;-67
2023/06/01 00:04:40;;;;;;;7.90;3.50;;;;;;;19.92;33.66;100222.20;107955;1255;72629;-66
2023/06/01 00:07:08;;;;;;;7.00;3.40;;;;;;;19.94;33.56;100222.14;107920;1256;69078;-67
2023/06/01 00:09:36;;;;;;;6.80;3.60;;;;;;;19.98;33.50;100220.91;107945;1254;71375;-67
2023/06/01 00:12:05;;;;;;;8.80;3.90;;;;;;;19.89;33.49;100221.73;107963;1256;60409;-68
2023/06/01 00:14:33;;;;;;;5.50;3.20;;;;;;;19.78;33.46;100221.27;107912;1256;60522;-68
2023/06/01 00:17:00;;;;;;;7.90;3.60;;;;;;;19.78;33.59;100219.30;107865;1255;76090;-67
2023/06/01 00:19:28;;;;;;;6.30;3.20;;;;;;;19.75;33.58;100223.64;107844;1256;69940;-66
2023/06/01 00:21:57;;;;;;;8.20;3.70;;;;;;;19.65;33.81;100219.73;107902;1255;71448;-67
2023/06/01 00:24:25;;;;;;;12.60;3.80;;;;;;;19.71;33.81;100219.65;107860;1256;60855;-66
2023/06/01 00:26:53;;;;;;;7.40;3.50;;;;;;;19.71;33.86;100218.57;107857;1255;60320;-66
2023/06/01 00:29:20;;;;;;;7.10;4.00;;;;;;;19.82;33.92;100219.03;107882;1255;73915;-67
2023/06/01 00:31:48;;;;;;;9.80;3.90;;;;;;;19.74;33.83;100220.14;107859;1255;69184;-66
2023/06/01 00:34:15;;;;;;;6.00;3.00;;;;;;;19.69;33.72;100216.24;107687;1260;71473;-66
2023/06/01 00:36:43;;;;;;;5.60;3.50;;;;;;;19.65;33.99;100216.16;107827;1255;61830;-66
2023/06/01 00:39:10;;;;;;;7.90;3.90;;;;;;;19.74;33.67;100217.66;107864;1256;60447;-67
2023/06/01 00:41:38;;;;;;;16.10;6.20;;;;;;;19.51;33.93;100220.23;107840;1256;75830;-66
2023/06/01 00:44:05;;;;;;;22.50;8.60;;;;;;;19.47;34.20;100219.06;107643;1256;69027;-66
2023/06/01 00:46:33;;;;;;;33.40;10.40;;;;;;;19.48;34.07;100213.27;107791;1256;72478;-66
2023/06/01 00:49:00;;;;;;;25.70;8.60;;;;;;;19.48;34.07;100214.36;107827;1256;60884;-67
2023/06/01 00:51:27;;;;;;;25.60;9.30;;;;;;;19.41;34.22;100216.82;107814;1256;60275;-67
2023/06/01 00:53:55;;;;;;;18.10;6.90;;;;;;;19.43;34.31;100217.73;107819;1256;74984;-66
2023/06/01 00:56:22;;;;;;;7.90;4.60;;;;;;;19.53;34.14;100214.16;107811;1256;70470;-66
2023/06/01 00:58:49;;;;;;;10.50;4.20;;;;;;;19.43;34.26;100214.02;107838;1260;71382;-66
2023/06/01 01:01:22;;;;;;;5.70;3.40;;;;;;;19.41;34.38;100212.92;107629;1256;60779;-67
2023/06/01 01:03:57;;;;;;;7.40;3.50;;;;;;;19.45;34.36;100212.09;107920;1256;60375;-66
2023/06/01 01:06:57;;;;;;;7.00;3.00;;;;;;;19.50;34.27;100214.08;107851;1255;74108;-66
2023/06/01 01:09:44;;;;;;;5.90;3.40;;;;;;;19.39;34.48;100220.52;107856;1256;70147;-66
2023/06/01 01:12:41;;;;;;;5.90;3.20;;;;;;;19.24;34.78;100221.77;107604;1256;72514;-66
2023/06/01 01:15:12;;;;;;;7.10;3.50;;;;;;;19.29;34.41;100223.42;107473;1256;63751;-67
2023/06/01 01:17:42;;;;;;;7.90;3.00;;;;;;;19.23;34.47;100222.25;107857;1256;60211;-66
2023/06/01 01:20:20;;;;;;;11.60;4.50;;;;;;;19.22;34.60;100224.61;107630;1256;73827;-66
2023/06/01 01:23:09;;;;;;;8.90;3.70;;;;;;;19.17;34.67;100226.39;107816;1256;69073;-66
2023/06/01 01:25:58;;;;;;;6.10;3.50;;;;;;;19.25;34.67;100224.73;107823;1256;72278;-64
2023/06/01 01:28:42;;;;;;;20.20;5.60;;;;;;;19.22;34.90;100221.44;107870;1256;60881;-65
2023/06/01 01:31:13;;;;;;;12.10;5.40;;;;;;;19.16;34.90;100221.88;107796;1256;60349;-67
2023/06/01 01:33:41;;;;;;;10.40;4.20;;;;;;;19.01;35.23;100221.45;107806;1256;73821;-67
2023/06/01 01:36:09;;;;;;;11.60;5.20;;;;;;;19.01;35.27;100218.63;107885;1254;70501;-67
2023/06/01 01:38:36;;;;;;;8.30;3.90;;;;;;;19.00;35.12;100220.85;107611;1256;71438;-65
2023/06/01 01:41:04;;;;;;;10.10;4.30;;;;;;;18.90;35.27;100222.80;107688;1261;60861;-66
2023/06/01 01:43:32;;;;;;;8.40;3.70;;;;;;;18.92;35.19;100220.34;107853;1254;60429;-67
2023/06/01 01:46:25;;;;;;;10.70;3.90;;;;;;;18.81;35.38;100223.08;107677;1256;73853;-66
2023/06/01 01:48:59;;;;;;;7.40;4.20;;;;;;;18.97;35.42;100222.31;107904;1254;68885;-67
2023/06/01 01:51:43;;;;;;;9.90;4.60;;;;;;;19.04;35.55;100222.17;107757;1261;72700;-65
2023/06/01 01:54:11;;;;;;;7.00;3.60;;;;;;;18.99;35.60;100220.23;107741;1257;59898;-66
2023/06/01 01:56:38;;;;;;;9.90;4.90;;;;;;;18.91;35.94;100222.86;107623;1254;60332;-65
2023/06/01 01:59:06;;;;;;;22.50;9.30;;;;;;;18.94;35.76;100222.48;107873;1254;73840;-67
2023/06/01 02:01:33;;;;;;;28.00;11.70;;;;;;;19.15;35.45;100216.41;107874;1256;70265;-65
2023/06/01 02:04:03;;;;;;;33.50;13.00;;;;;;;19.10;35.57;100220.82;107624;1256;72830;-67
2023/06/01 02:06:34;;;;;;;26.90;12.00;;;;;;;19.13;35.54;100222.45;107889;1256;60925;-66
2023/06/01 02:09:06;;;;;;;32.40;13.60;;;;;;;19.13;35.57;100222.43;107841;1254;60472;-66
2023/06/01 02:11:34;;;;;;;28.90;9.80;;;;;;;19.07;35.60;100223.38;107690;1256;73908;-66
2023/06/01 02:14:02;;;;;;;15.60;7.00;;;;;;;19.01;35.81;100225.43;107742;1255;68746;-66
2023/06/01 02:16:29;;;;;;;19.50;7.90;;;;;;;19.07;35.92;100225.52;107853;1254;72718;-66
2023/06/01 02:18:57;;;;;;;21.80;9.30;;;;;;;19.02;36.02;100227.08;107882;1257;60274;-67
2023/06/01 02:21:26;;;;;;;32.10;10.70;;;;;;;18.91;36.17;100232.88;107729;1255;60381;-67
2023/06/01 02:24:05;;;;;;;31.20;11.20;;;;;;;18.79;36.39;100229.45;107892;1254;74083;-67
2023/06/01 02:26:33;;;;;;;17.80;7.40;;;;;;;18.90;36.25;100228.30;107675;1256;70433;-65
2023/06/01 02:29:05;;;;;;;23.60;8.80;;;;;;;19.04;36.27;100227.12;107889;1256;72738;-66
2023/06/01 02:31:33;;;;;;;23.80;9.80;;;;;;;19.19;36.05;100227.68;107612;1262;60348;-65
2023/06/01 02:34:01;;;;;;;15.90;7.00;;;;;;;19.12;36.25;100228.72;107697;1256;59716;-65
2023/06/01 02:36:29;;;;;;;17.60;8.00;;;;;;;19.42;36.06;100227.08;107816;1256;72606;-65
2023/06/01 02:38:56;;;;;;;12.60;6.40;;;;;;;19.64;35.76;100225.67;107654;1256;70007;-64
2023/06/01 02:41:24;;;;;;;14.50;5.70;;;;;;;19.82;35.55;100223.65;107620;1263;71416;-66
2023/06/01 02:43:52;;;;;;;15.00;6.80;;;;;;;19.95;35.64;100221.05;107923;1258;60898;-66
2023/06/01 02:46:19;;;;;;;10.30;6.10;;;;;;;20.14;35.43;100226.66;107853;1255;60322;-66
2023/06/01 02:48:47;;;;;;;13.70;5.80;;;;;;;20.18;35.45;100223.83;107830;1256;73856;-65
2023/06/01 02:51:15;;;;;;;13.10;5.80;;;;;;;20.14;35.66;100228.27;107574;1261;70324;-66
2023/06/01 02:53:43;;;;;;;14.50;5.20;;;;;;;19.92;35.99;100230.80;107797;1257;72699;-66
2023/06/01 02:56:11;;;;;;;13.60;5.80;;;;;;;19.79;36.19;100228.20;107840;1256;60822;-65
2023/06/01 02:59:06;;;;;;;10.70;6.00;;;;;;;20.06;36.08;100228.67;107913;1259;60405;-66
2023/06/01 03:01:37;;;;;;;13.50;5.80;;;;;;;20.31;35.91;100226.42;107936;1256;73967;-67
2023/06/01 03:04:06;;;;;;;13.20;6.40;;;;;;;20.24;36.13;100228.19;107857;1254;70019;-67
2023/06/01 03:06:37;;;;;;;11.20;5.50;;;;;;;20.25;36.19;100226.50;107835;1260;72659;-66
2023/06/01 03:09:20;;;;;;;16.10;5.60;;;;;;;20.54;35.93;100228.60;107836;1254;60996;-66
2023/06/01 03:12:01;;;;;;;16.40;6.40;;;;;;;20.68;35.71;100225.00;107879;1257;60322;-64
2023/06/01 03:14:30;;;;;;;15.20;6.30;;;;;;;20.66;35.83;100226.58;107700;1254;73801;-66
2023/06/01 03:16:57;;;;;;;12.20;6.00;;;;;;;20.98;35.66;100226.22;107901;1255;68513;-68
2023/06/01 03:19:24;;;;;;;12.60;5.90;;;;;;;21.11;35.48;100222.92;107647;1255;72653;-67
2023/06/01 03:21:56;;;;;;;11.50;5.30;;;;;;;21.37;35.29;100224.95;107690;1255;60632;-65
2023/06/01 03:24:26;;;;;;;22.70;5.40;;;;;;;21.63;35.05;100223.25;107628;1254;60462;-65
2023/06/01 03:26:54;;;;;;;20.00;5.70;;;;;;;21.82;34.98;100221.63;107899;1256;73196;-68
2023/06/01 03:29:22;;;;;;;13.90;5.70;;;;;;;22.18;34.39;100218.81;107892;1254;69073;-68
2023/06/01 03:31:50;;;;;;;14.20;6.20;;;;;;;22.42;34.39;100218.79;107892;1257;72736;-66
2023/06/01 03:34:21;;;;;;;12.40;6.10;;;;;;;22.60;34.03;100220.00;107839;1256;62308;-67
2023/06/01 03:36:48;;;;;;;15.60;6.50;;;;;;;22.90;33.80;100219.99;107920;1255;59090;-66
2023/06/01 03:39:16;;;;;;;11.60;5.90;;;;;;;23.16;33.55;100214.94;107714;1260;73942;-66
2023/06/01 03:41:44;;;;;;;12.50;5.20;;;;;;;23.37;33.32;100216.51;107709;1260;69372;-67
2023/06/01 03:44:11;;;;;;;12.20;6.10;;;;;;;23.62;32.96;100214.76;107704;1254;72501;-68
2023/06/01 03:46:39;;;;;;;9.20;5.80;;;;;;;23.85;32.62;100212.69;107897;1260;60431;-66
2023/06/01 03:49:07;;;;;;;20.90;6.00;;;;;;;24.06;32.59;100213.45;107693;1257;60292;-66
2023/06/01 03:51:35;;;;;;;11.90;5.50;;;;;;;24.21;32.12;100211.34;107700;1261;73868;-66
2023/06/01 03:54:03;;;;;;;13.20;6.40;;;;;;;24.35;32.08;100212.75;107692;1260;70279;-67
2023/06/01 03:56:30;;;;;;;11.50;5.80;;;;;;;24.67;31.63;100213.02;107684;1257;72823;-67
2023/06/01 03:59:01;;;;;;;13.90;6.80;;;;;;;24.67;31.48;100210.87;107849;1254;60364;-67
2023/06/01 04:01:29;;;;;;;17.10;5.90;;;;;;;24.95;31.25;100214.09;107876;1255;60314;-67
2023/06/01 04:03:56;;;;;;;14.90;6.90;;;;;;;25.24;30.68;100208.64;107859;1260;73648;-68
2023/06/01 04:06:24;;;;;;;17.00;5.50;;;;;;;25.35;30.27;100202.19;107899;1254;69697;-67
2023/06/01 04:08:55;;;;;;;16.70;6.50;;;;;;;25.65;29.99;100202.97;107715;1257;71889;-67
2023/06/01 04:11:23;;;;;;;13.00;6.50;;;;;;;25.91;29.73;100200.61;107877;1259;60321;-68
2023/06/01 04:13:51;;;;;;;17.70;6.00;;;;;;;26.15;29.35;100200.13;107716;1257;60278;-67
2023/06/01 04:16:19;;;;;;;16.00;6.30;;;;;;;26.56;28.87;100197.59;107888;1260;73946;-67
2023/06/01 04:18:47;;;;;;;13.50;6.00;;;;;;;26.56;28.64;100196.57;107679;1255;70304;-66
2023/06/01 04:21:17;;;;;;;18.20;5.50;;;;;;;26.78;28.37;100193.14;107814;1258;72673;-68
2023/06/01 04:23:45;;;;;;;22.00;6.40;;;;;;;26.99;27.83;100187.38;107958;1254;60469;-67
2023/06/01 04:26:14;;;;;;;9.80;5.30;;;;;;;26.96;27.28;100187.34;107554;1257;194173;-67
2023/06/01 04:29:53;;;;;;;18.20;6.10;;;;;;;24.38;30.58;100193.94;105059;1292;600372;-67
2023/06/01 04:32:23;;;;;;;12.00;5.60;;;;;;;26.30;28.02;100191.80;107427;1268;60732;-68
2023/06/01 04:34:52;;;;;;;17.30;5.20;;;;;;;26.97;27.09;100189.33;107967;1254;60062;-67
2023/06/01 04:37:22;;;;;;;9.80;5.50;;;;;;;27.22;26.47;100188.91;107966;1254;72217;-68
2023/06/01 04:39:50;;;;;;;14.00;5.70;;;;;;;27.44;26.49;100188.23;107934;1254;68726;-67
2023/06/01 04:42:18;;;;;;;8.90;5.10;;;;;;;27.84;26.14;100188.61;107861;1257;72437;-68
2023/06/01 04:44:49;;;;;;;13.30;5.60;;;;;;;28.16;25.51;100188.55;107878;1254;59270;-67
2023/06/01 04:47:17;;;;;;;10.10;5.40;;;;;;;28.44;25.19;100182.17;108054;1254;59377;-68
2023/06/01 04:49:47;;;;;;;11.60;4.60;;;;;;;28.69;24.88;100184.41;108037;1254;70551;-68
2023/06/01 04:52:14;;;;;;;18.00;4.70;;;;;;;29.18;24.64;100185.05;108144;1253;71409;-67
2023/06/01 04:54:43;;;;;;;12.10;4.20;;;;;;;29.37;24.33;100182.48;108084;1254;72804;-67
2023/06/01 04:57:13;;;;;;;12.90;4.40;;;;;;;29.43;23.83;100182.77;108007;1254;59797;-68
2023/06/01 04:59:41;;;;;;;13.20;3.60;;;;;;;29.71;23.42;100178.58;108040;1252;59230;-67
2023/06/01 05:02:09;;;;;;;10.00;3.70;;;;;;;29.46;23.16;100181.86;108064;1254;71092;-67
2023/06/01 05:04:36;;;;;;;13.00;4.10;;;;;;;29.69;23.21;100175.25;108159;1254;70244;-67
2023/06/01 05:07:04;;;;;;;9.90;3.60;;;;;;;30.26;22.88;100173.50;108134;1254;71058;-67
2023/06/01 05:09:32;;;;;;;9.60;3.20;;;;;;;30.60;21.84;100171.96;107965;1254;59633;-68
2023/06/01 05:12:01;;;;;;;9.00;3.00;;;;;;;30.87;21.65;100172.62;107980;1257;60008;-68
2023/06/01 05:14:29;;;;;;;9.90;3.40;;;;;;;31.14;21.57;100169.59;108106;1254;73018;-67
2023/06/01 05:16:56;;;;;;;7.30;3.00;;;;;;;31.68;20.94;100162.00;108049;1254;69006;-68
2023/06/01 05:19:24;;;;;;;10.50;3.30;;;;;;;32.10;20.54;100162.84;107992;1254;71108;-68
2023/06/01 05:21:52;;;;;;;8.70;3.30;;;;;;;32.47;20.11;100162.44;108111;1253;59594;-68
2023/06/01 05:24:20;;;;;;;6.20;3.10;;;;;;;32.75;19.50;100159.77;107983;1253;59994;-67
2023/06/01 05:26:47;;;;;;;7.90;3.10;;;;;;;32.65;19.17;100156.48;108197;1251;71780;-69
2023/06/01 05:29:15;;;;;;;8.90;2.90;;;;;;;33.04;18.92;100159.64;108246;1253;68527;-68
2023/06/01 05:31:42;;;;;;;8.60;3.50;;;;;;;33.32;18.45;100156.58;108108;1254;72826;-68
2023/06/01 05:34:10;;;;;;;7.80;2.70;;;;;;;33.47;18.14;100156.09;108038;1252;60030;-68
2023/06/01 05:36:37;;;;;;;8.30;2.80;;;;;;;33.77;17.83;100154.44;108063;1253;60005;-68
2023/06/01 05:39:05;;;;;;;9.30;3.20;;;;;;;33.99;17.78;100156.28;108033;1254;73165;-69
2023/06/01 05:41:33;;;;;;;7.40;3.40;;;;;;;34.30;17.62;100147.85;108087;1252;61364;-69
2023/06/01 05:44:01;;;;;;;7.10;2.90;;;;;;;34.62;17.27;100149.23;108094;1259;63795;-69
2023/06/01 05:46:28;;;;;;;5.80;2.80;;;;;;;34.49;17.06;100149.42;108208;1254;59566;-69
2023/06/01 05:48:56;;;;;;;6.70;3.10;;;;;;;34.52;17.24;100146.77;108171;1253;59545;-68
2023/06/01 05:51:23;;;;;;;7.40;2.80;;;;;;;34.92;16.86;100148.87;108098;1257;62875;-69
2023/06/01 05:53:51;;;;;;;7.50;2.40;;;;;;;35.09;16.87;100151.42;108103;1254;61685;-67
2023/06/01 05:56:18;;;;;;;4.40;2.30;;;;;;;35.50;16.50;100146.35;108096;1254;62452;-68
2023/06/01 05:58:50;;;;;;;10.80;2.90;;;;;;;35.93;15.98;100144.68;108079;1253;59516;-68
2023/06/01 06:01:17;;;;;;;7.70;2.20;;;;;;;36.31;15.35;100145.48;108079;1254;59746;-68
2023/06/01 06:03:45;;;;;;;6.50;2.30;;;;;;;36.06;15.14;100145.73;108121;1254;63563;-68
2023/06/01 06:06:12;;;;;;;3.40;2.00;;;;;;;35.78;15.21;100148.13;108147;1254;60707;-69
2023/06/01 06:08:40;;;;;;;4.80;2.30;;;;;;;35.46;15.25;100147.23;108035;1253;63718;-69
2023/06/01 06:11:07;;;;;;;13.20;3.00;;;;;;;35.59;15.36;100148.08;108081;1254;62533;-69
2023/06/01 06:13:34;;;;;;;5.40;2.20;;;;;;;35.49;14.99;100150.06;108085;1254;58993;-69
2023/06/01 06:16:02;;;;;;;5.20;2.20;;;;;;;35.67;15.29;100151.63;108143;1253;62851;-69
2023/06/01 06:18:29;;;;;;;10.20;2.50;;;;;;;35.68;14.98;100151.11;108389;1253;60314;-69
2023/06/01 06:20:57;;;;;;;6.50;2.20;;;;;;;35.95;14.84;100151.34;108159;1254;63755;-68
2023/06/01 06:23:25;;;;;;;6.60;2.10;;;;;;;36.27;15.09;100148.89;108230;1253;59598;-68
2023/06/01 06:25:52;;;;;;;5.70;2.00;;;;;;;36.78;14.74;100152.95;108146;1254;59388;-67
2023/06/01 06:28:21;;;;;;;8.00;2.20;;;;;;;37.21;14.63;100155.54;108085;1254;64134;-69
2023/06/01 06:30:48;;;;;;;3.90;1.90;;;;;;;37.46;14.31;100151.15;108144;1254;61391;-68
2023/06/01 06:33:16;;;;;;;5.80;2.00;;;;;;;37.86;13.92;100145.33;108063;1254;62549;-68
2023/06/01 06:35:43;;;;;;;4.30;1.60;;;;;;;38.14;13.65;100143.02;108081;1254;59615;-68
2023/06/01 06:38:11;;;;;;;4.40;1.60;;;;;;;37.90;13.39;100144.09;108099;1254;59918;-69
2023/06/01 06:40:38;;;;;;;4.20;1.60;;;;;;;37.72;13.57;100145.46;108101;1253;64323;-68
2023/06/01 06:43:06;;;;;;;4.00;1.90;;;;;;;37.35;13.77;100137.88;108083;1254;61331;-68
2023/06/01 06:45:33;;;;;;;7.60;2.00;;;;;;;37.04;13.85;100139.48;108084;1254;63226;-69
2023/06/01 06:48:00;;;;;;;6.10;2.00;;;;;;;36.60;14.03;100140.14;108115;1256;59569;-69
2023/06/01 06:50:28;;;;;;;6.20;2.10;;;;;;;36.39;14.44;100137.70;108134;1254;59661;-69
2023/06/01 06:52:55;;;;;;;11.60;2.10;;;;;;;36.58;14.00;100136.19;108079;1253;62918;-69
2023/06/01 06:55:23;;;;;;;7.10;1.90;;;;;;;36.68;14.27;100136.35;108055;1254;61353;-68
2023/06/01 06:57:50;;;;;;;6.50;1.80;;;;;;;37.16;14.23;100139.33;108080;1255;63796;-68
2023/06/01 07:00:20;;;;;;;4.90;1.70;;;;;;;37.72;13.73;100130.96;108064;1258;59608;-70
2023/06/01 07:02:48;;;;;;;5.60;1.80;;;;;;;37.54;13.68;100131.69;108043;1254;58340;-68
2023/06/01 07:05:15;;;;;;;6.70;1.80;;;;;;;37.83;13.73;100132.28;107975;1254;64100;-68
2023/06/01 07:07:43;;;;;;;3.60;2.00;;;;;;;38.27;13.42;100128.42;108031;1253;61501;-69
2023/06/01 07:10:10;;;;;;;3.40;1.60;;;;;;;38.31;13.23;100128.48;108083;1254;66040;-68
2023/06/01 07:12:37;;;;;;;5.80;1.80;;;;;;;38.47;13.23;100129.89;108028;1254;59605;-69
2023/06/01 07:15:06;;;;;;;4.10;1.80;;;;;;;38.85;13.02;100128.55;108052;1254;59599;-69
2023/06/01 07:17:33;;;;;;;13.40;2.10;;;;;;;38.83;12.93;100128.83;108100;1254;64154;-69
2023/06/01 07:20:04;;;;;;;7.90;1.90;;;;;;;38.52;13.18;100123.59;108072;1254;61592;-68
2023/06/01 07:22:33;;;;;;;4.70;2.00;;;;;;;38.17;13.32;100122.99;108107;1254;62425;-68
2023/06/01 07:25:00;;;;;;;4.90;1.80;;;;;;;38.36;13.38;100120.09;108105;1254;59624;-68
2023/06/01 07:27:28;;;;;;;14.30;2.20;;;;;;;38.81;13.39;100120.90;108102;1254;59543;-69
2023/06/01 07:29:55;;;;;;;5.00;1.50;;;;;;;39.30;13.04;100120.38;108203;1251;64147;-68
2023/06/01 07:32:23;;;;;;;4.70;1.60;;;;;;;39.56;12.93;100118.13;108246;1251;61572;-70
2023/06/01 07:34:51;;;;;;;8.40;1.50;;;;;;;39.59;12.72;100119.61;108200;1251;64169;-69
2023/06/01 07:37:21;;;;;;;5.00;1.70;;;;;;;39.55;12.53;100118.98;108161;1254;59119;-69
2023/06/01 07:39:49;;;;;;;8.20;2.30;;;;;;;39.23;12.59;100113.09;108277;1251;59642;-67
2023/06/01 07:42:16;;;;;;;4.90;1.90;;;;;;;39.31;12.60;100108.95;108179;1251;64132;-69
2023/06/01 07:44:45;;;;;;;9.50;1.90;;;;;;;39.38;12.64;100106.55;108247;1251;60079;-70
2023/06/01 07:47:12;;;;;;;4.30;1.50;;;;;;;39.37;12.76;100109.90;108267;1253;62430;-69
2023/06/01 07:49:39;;;;;;;6.20;1.80;;;;;;;39.28;12.61;100112.90;108315;1252;59183;-69
2023/06/01 07:52:07;;;;;;;6.50;1.80;;;;;;;39.71;12.27;100105.04;108251;1251;58305;-69
2023/06/01 07:54:37;;;;;;;7.20;1.90;;;;;;;40.05;12.24;100096.80;108186;1252;64125;-68
2023/06/01 07:57:05;;;;;;;6.60;1.80;;;;;;;40.08;12.34;100092.11;108184;1251;60331;-69
2023/06/01 07:59:32;;;;;;;4.60;1.50;;;;;;;40.21;12.13;100090.38;108246;1251;63805;-68
2023/06/01 08:02:00;;;;;;;3.90;1.70;;;;;;;39.82;11.81;100096.63;108271;1251;59502;-69
2023/06/01 08:04:33;;;;;;;5.50;1.80;;;;;;;39.73;12.08;100089.52;108226;1251;59646;-68
2023/06/01 08:07:06;;;;;;;7.90;2.00;;;;;;;40.05;11.79;100080.02;108256;1251;64193;-69
2023/06/01 08:09:35;;;;;;;2.90;1.40;;;;;;;40.25;11.70;100075.42;108294;1251;61427;-69
2023/06/01 08:12:03;;;;;;;7.20;2.30;;;;;;;40.62;11.73;100074.90;108233;1253;63747;-68
2023/06/01 08:14:32;;;;;;;7.00;1.90;;;;;;;40.60;11.86;100076.45;108277;1251;58982;-69
2023/06/01 08:17:02;;;;;;;8.10;1.70;;;;;;;40.51;11.87;100075.95;108263;1251;59674;-70
2023/06/01 08:19:31;;;;;;;;;;;;;;;40.30;11.94;100076.70;108245;1251;64276;-69
2023/06/01 08:21:58;;;;;;;15.80;1.90;;;;;;;40.45;11.87;100074.67;108184;1256;60308;-69
2023/06/01 08:24:26;;;;;;;5.40;1.60;;;;;;;40.09;11.82;100072.32;108317;1251;63672;-69
2023/06/01 08:26:54;;;;;;;4.60;1.90;;;;;;;39.71;12.09;100072.48;108126;1253;58993;-68
2023/06/01 08:29:22;;;;;;;5.80;1.80;;;;;;;39.40;12.28;100066.13;108160;1252;60046;-69
2023/06/01 08:32:09;;;;;;;6.50;1.50;;;;;;;39.31;12.40;100065.52;108106;1253;64227;-69
2023/06/01 08:34:36;;;;;;;8.50;1.90;;;;;;;39.67;12.69;100065.73;108382;1251;61319;-70
2023/06/01 08:37:04;;;;;;;4.30;1.70;;;;;;;40.17;12.41;100061.58;108297;1250;63762;-69
2023/06/01 08:39:32;;;;;;;3.50;1.90;;;;;;;40.51;11.97;100056.09;108326;1251;60388;-69
2023/06/01 08:42:17;;;;;;;3.90;1.60;;;;;;;40.96;11.79;100054.83;108323;1250;59073;-69
2023/06/01 08:44:45;;;;;;;8.70;1.70;;;;;;;41.05;11.44;100055.98;108339;1251;64991;-69
2023/06/01 08:47:12;;;;;;;5.70;1.60;;;;;;;40.81;11.53;100057.36;108312;1250;61371;-69
2023/06/01 08:49:41;;;;;;;5.50;1.50;;;;;;;40.49;11.30;100051.04;108324;1253;63736;-69
2023/06/01 08:52:12;;;;;;;8.10;2.20;;;;;;;40.26;11.31;100043.66;108438;1249;59947;-68
2023/06/01 08:54:40;;;;;;;5.40;1.70;;;;;;;40.52;11.53;100042.80;108363;1250;60433;-68
2023/06/01 08:57:07;;;;;;;4.20;2.00;;;;;;;40.31;11.42;100039.42;108406;1251;63888;-69
2023/06/01 08:59:36;;;;;;;4.80;1.80;;;;;;;39.92;11.52;100039.36;108332;1251;61409;-69
2023/06/01 09:02:03;;;;;;;12.80;1.90;;;;;;;39.95;11.68;100037.30;108295;1251;63711;-69
2023/06/01 09:04:37;;;;;;;6.30;1.90;;;;;;;40.01;11.64;100034.64;108408;1254;60428;-70
2023/06/01 09:07:05;;;;;;;11.70;1.90;;;;;;;40.19;11.74;100029.77;108246;1250;60303;-69
2023/06/01 09:09:32;;;;;;;8.90;1.80;;;;;;;40.68;11.96;100034.06;108426;1251;64907;-69
2023/06/01 09:12:23;;;;;;;5.50;1.60;;;;;;;41.26;11.61;100032.38;108374;1251;60306;-69
2023/06/01 09:14:51;;;;;;;;;;;;;;;41.53;11.41;100027.94;108441;1251;63733;-69
2023/06/01 09:17:22;;;;;;;11.20;1.80;;;;;;;41.41;11.15;100028.33;108388;1250;60424;-70
2023/06/01 09:19:57;;;;;;;8.30;1.80;;;;;;;41.19;11.14;100026.52;108403;1251;60290;-69
2023/06/01 09:22:24;;;;;;;4.80;1.90;;;;;;;41.29;11.27;100022.98;108204;1249;64890;-69
2023/06/01 09:24:59;;;;;;;5.10;2.20;;;;;;;41.46;11.23;100018.92;108393;1250;62680;-69
2023/06/01 09:27:26;;;;;;;6.90;1.80;;;;;;;41.56;11.22;100019.11;108400;1251;62603;-70
2023/06/01 09:29:54;;;;;;;5.50;1.80;;;;;;;41.35;11.25;100013.13;108295;1251;60482;-69
2023/06/01 09:32:21;;;;;;;7.70;1.80;;;;;;;41.43;11.49;100012.88;108270;1251;60344;-69
2023/06/01 09:34:49;;;;;;;5.80;2.30;;;;;;;41.12;11.44;100014.55;108236;1251;63857;-69
2023/06/01 09:37:16;;;;;;;5.30;2.20;;;;;;;41.25;11.25;100010.48;108229;1251;60424;-69
2023/06/01 09:39:44;;;;;;;8.30;2.30;;;;;;;41.46;11.17;100007.64;108277;1251;62464;-70
2023/06/01 09:42:11;;;;;;;8.60;2.50;;;;;;;41.57;10.96;100005.86;108244;1252;60536;-69
2023/06/01 09:44:40;;;;;;;7.50;2.10;;;;;;;41.10;11.22;100007.19;108251;1254;60270;-70
2023/06/01 09:47:10;;;;;;;5.00;2.00;;;;;;;40.61;11.49;100008.96;108275;1251;64981;-69
2023/06/01 09:49:42;;;;;;;5.60;2.20;;;;;;;40.94;11.22;100007.91;108303;1251;60293;-69
2023/06/01 09:52:12;;;;;;;5.00;1.80;;;;;;;41.39;11.04;100003.23;108219;1256;74867;-69
2023/06/01 09:54:49;;;;;;;5.20;2.10;;;;;;;41.76;10.89;99996.84;108183;1251;60266;-69
2023/06/01 09:57:24;;;;;;;7.30;2.30;;;;;;;41.55;10.99;100001.25;108293;1251;59937;-69
2023/06/01 09:59:52;;;;;;;7.30;2.70;;;;;;;41.58;11.16;99995.98;108235;1251;65034;-70
2023/06/01 10:02:21;;;;;;;10.30;2.60;;;;;;;41.86;11.28;99999.77;108237;1251;60488;-69
2023/06/01 10:04:53;;;;;;;7.30;2.10;;;;;;;42.20;11.12;99994.13;108383;1251;63151;-69
2023/06/01 10:07:22;;;;;;;7.40;2.30;;;;;;;42.29;10.89;99994.44;108167;1251;60465;-70
2023/06/01 10:09:57;;;;;;;4.20;2.10;;;;;;;42.13;10.97;99991.33;108210;1251;60456;-69
2023/06/01 10:12:25;;;;;;;7.20;2.40;;;;;;;42.27;10.71;99994.81;108269;1251;63718;-70
2023/06/01 10:14:53;;;;;;;7.30;2.30;;;;;;;42.61;10.41;99989.48;108183;1253;61440;-70
2023/06/01 10:17:20;;;;;;;6.10;2.00;;;;;;;42.70;10.54;99985.91;108344;1253;62665;-70
2023/06/01 10:19:48;;;;;;;12.30;2.60;;;;;;;42.66;10.70;99981.36;108411;1251;60418;-69
2023/06/01 10:22:16;;;;;;;4.60;2.40;;;;;;;42.73;10.46;99978.61;108341;1250;60334;-70
2023/06/01 10:24:43;;;;;;;10.60;2.70;;;;;;;42.77;10.55;99980.52;108299;1250;72940;-70
2023/06/01 10:27:16;;;;;;;5.30;2.50;;;;;;;42.87;10.56;99981.14;108242;1256;60384;-68
2023/06/01 10:29:43;;;;;;;6.20;2.40;;;;;;;42.78;10.43;99978.30;108400;1254;62651;-71
2023/06/01 10:32:36;;;;;;;7.70;2.40;;;;;;;42.84;10.52;99971.12;108234;1257;59458;-69
2023/06/01 10:35:04;;;;;;;4.30;2.30;;;;;;;42.55;10.73;99969.98;108352;1250;60325;-69
2023/06/01 10:37:32;;;;;;;5.50;2.40;;;;;;;42.68;10.68;99963.04;108271;1251;63708;-69
2023/06/01 10:40:17;;;;;;;5.20;2.50;;;;;;;42.78;10.63;99960.02;108357;1251;61510;-68
2023/06/01 10:42:45;;;;;;;6.10;2.00;;;;;;;42.70;10.63;99956.84;108346;1250;63739;-69
2023/06/01 10:45:35;;;;;;;9.00;2.80;;;;;;;42.43;10.61;99958.19;108300;1250;60212;-69
2023/06/01 10:48:03;;;;;;;6.90;2.30;;;;;;;42.10;10.88;99957.73;108314;1250;60385;-69
2023/06/01 10:50:30;;;;;;;4.10;2.40;;;;;;;41.73;11.20;99955.23;108370;1250;63628;-69
2023/06/01 10:53:27;;;;;;;15.10;2.70;;;;;;;41.54;11.01;99952.83;108326;1250;61451;-69
2023/06/01 10:56:17;;;;;;;8.80;2.70;;;;;;;41.19;11.11;99950.33;108371;1256;63954;-70
2023/06/01 10:58:45;;;;;;;8.00;2.60;;;;;;;40.49;11.59;99942.48;108301;1257;60341;-69
2023/06/01 11:01:19;;;;;;;5.80;2.60;;;;;;;39.81;11.70;99937.06;108313;1250;60408;-69
2023/06/01 11:03:47;;;;;;;5.60;2.50;;;;;;;40.02;12.35;99933.77;108402;1250;65182;-66
2023/06/01 11:06:35;;;;;;;7.30;2.60;;;;;;;40.50;12.02;99933.33;108358;1251;61382;-69
2023/06/01 11:09:05;;;;;;;5.60;2.40;;;;;;;41.23;11.58;99926.77;108330;1253;62459;-68
2023/06/01 11:11:51;;;;;;;9.30;2.70;;;;;;;41.78;11.65;99923.84;108345;1253;60316;-69
2023/06/01 11:14:24;;;;;;;7.70;2.30;;;;;;;42.32;11.31;99921.64;108326;1250;60427;-69
2023/06/01 11:16:54;;;;;;;6.60;2.80;;;;;;;42.21;11.19;99918.82;108327;1251;64912;-69
2023/06/01 11:19:25;;;;;;;6.50;2.50;;;;;;;41.48;11.20;99922.27;108392;1251;60200;-69
2023/06/01 11:22:01;;;;;;;4.60;2.30;;;;;;;41.33;11.13;99911.66;108319;1253;63720;-69
2023/06/01 11:24:34;;;;;;;5.80;2.20;;;;;;;41.57;11.39;99903.22;108331;1251;60456;-69
2023/06/01 11:27:09;;;;;;;7.70;2.40;;;;;;;41.84;11.11;99900.27;108420;1251;60232;-69
2023/06/01 11:29:37;;;;;;;8.90;2.60;;;;;;;41.64;11.07;99899.21;108171;1254;65203;-69